createdAt,value
2018-10-09T00:01:01.459Z,6.41
2018-10-09T00:03:30.000Z,6.37
2018-10-09T00:05:58.585Z,6.30
2018-10-09T00:08:27.145Z,6.24
2018-10-09T00:10:55.900Z,6.32
2018-10-09T00:13:24.612Z,6.31
2018-10-09T00:15:53.313Z,6.20
2018-10-09T00:18:22.057Z,6.04
2018-10-09T00:20:50.628Z,6.00
2018-10-09T00:23:19.203Z,6.04
2018-10-09T00:25:48.143Z,6.02
2018-10-09T00:28:16.686Z,5.96
2018-10-09T00:30:45.243Z,5.98
2018-10-09T00:33:13.926Z,5.87
2018-10-09T00:35:42.561Z,5.96
2018-10-09T00:38:11.150Z,5.99
2018-10-09T00:40:39.685Z,5.96
2018-10-09T00:43:08.238Z,5.93
2018-10-09T00:45:37.376Z,5.85
2018-10-09T00:48:05.956Z,5.79
2018-10-09T00:50:34.785Z,5.78
2018-10-09T00:53:04.001Z,5.72
2018-10-09T00:55:32.689Z,5.72
2018-10-09T00:58:01.312Z,5.61
2018-10-09T01:00:32.206Z,5.52
2018-10-09T01:03:00.801Z,5.56
2018-10-09T01:05:29.333Z,5.55
2018-10-09T01:07:58.151Z,5.56
2018-10-09T01:10:26.709Z,5.49
2018-10-09T01:12:55.385Z,5.46
2018-10-09T01:15:23.988Z,5.38
2018-10-09T01:17:52.620Z,5.34
2018-10-09T01:20:26.521Z,5.41
2018-10-09T01:22:55.161Z,5.51
2018-10-09T01:25:23.827Z,5.49
2018-10-09T01:27:52.389Z,5.52
2018-10-09T01:30:20.921Z,5.52
2018-10-09T01:32:49.520Z,5.50
2018-10-09T01:35:18.065Z,5.42
2018-10-09T01:37:46.754Z,5.37
2018-10-09T01:40:15.484Z,5.33
2018-10-09T01:42:44.039Z,5.31
2018-10-09T01:45:12.618Z,5.46
2018-10-09T01:47:41.517Z,5.50
2018-10-09T01:50:14.282Z,5.57
2018-10-09T01:52:43.125Z,5.63
2018-10-09T01:55:11.709Z,5.59
2018-10-09T01:57:40.295Z,5.61
2018-10-09T02:00:09.885Z,5.71
2018-10-09T02:02:38.563Z,5.73
2018-10-09T02:05:07.493Z,5.71
2018-10-09T02:07:36.273Z,5.69
2018-10-09T02:10:05.493Z,5.69
2018-10-09T02:12:34.053Z,5.58
2018-10-09T02:15:03.120Z,5.46
2018-10-09T02:17:31.673Z,5.44
2018-10-09T02:20:00.222Z,5.40
2018-10-09T02:22:28.741Z,5.54
2018-10-09T02:24:57.554Z,5.52
2018-10-09T02:27:26.186Z,5.59
2018-10-09T02:29:54.742Z,5.58
2018-10-09T02:32:23.298Z,5.56
2018-10-09T02:34:51.842Z,5.62
2018-10-09T02:37:20.409Z,5.66
2018-10-09T02:39:49.041Z,5.66
2018-10-09T02:42:17.778Z,5.57
2018-10-09T02:44:46.466Z,5.56
2018-10-09T02:47:15.018Z,5.58
2018-10-09T02:49:43.563Z,5.58
2018-10-09T02:52:12.148Z,5.58
2018-10-09T02:54:40.694Z,5.44
2018-10-09T02:57:09.244Z,5.31
2018-10-09T02:59:38.283Z,5.22
2018-10-09T03:02:07.011Z,5.27
2018-10-09T03:04:35.590Z,5.24
2018-10-09T03:07:04.167Z,5.22
2018-10-09T03:09:32.732Z,5.22
2018-10-09T03:12:01.289Z,5.24
2018-10-09T03:14:29.837Z,5.34
2018-10-09T03:16:58.834Z,5.43
2018-10-09T03:19:27.738Z,5.41
2018-10-09T03:21:56.306Z,5.42
2018-10-09T03:24:24.885Z,5.36
2018-10-09T03:26:53.441Z,5.39
2018-10-09T03:29:22.021Z,5.22
2018-10-09T03:31:50.568Z,5.08
2018-10-09T03:34:19.213Z,5.00
2018-10-09T03:36:47.862Z,4.95
2018-10-09T03:39:16.422Z,4.89
2018-10-09T03:41:45.042Z,4.78
2018-10-09T03:44:13.609Z,4.76
2018-10-09T03:46:42.162Z,4.71
2018-10-09T03:49:10.750Z,4.63
2018-10-09T03:51:39.412Z,4.62
2018-10-09T03:54:08.126Z,4.67
2018-10-09T03:56:36.762Z,4.67
2018-10-09T03:59:05.454Z,4.72
2018-10-09T04:01:34.031Z,4.73
2018-10-09T04:04:02.571Z,4.86
2018-10-09T04:06:31.257Z,4.92
2018-10-09T04:09:00.229Z,5.05
2018-10-09T04:11:29.108Z,5.24
2018-10-09T04:13:57.639Z,5.29
2018-10-09T04:16:26.190Z,5.43
2018-10-09T04:18:54.909Z,5.37
2018-10-09T04:21:23.469Z,5.39
2018-10-09T04:23:52.090Z,5.34
2018-10-09T04:26:20.697Z,5.24
2018-10-09T04:28:49.370Z,5.16
2018-10-09T04:31:17.952Z,5.16
2018-10-09T04:33:46.522Z,5.07
2018-10-09T04:36:15.065Z,5.05
2018-10-09T04:38:43.649Z,4.97
2018-10-09T04:41:12.286Z,4.98
2018-10-09T04:43:40.981Z,4.96
2018-10-09T04:46:09.525Z,5.03
2018-10-09T04:48:38.078Z,4.95
2018-10-09T04:51:06.629Z,4.94
2018-10-09T04:53:35.418Z,4.91
2018-10-09T04:56:04.033Z,4.90
2018-10-09T04:58:32.822Z,5.14
2018-10-09T05:01:01.469Z,5.23
2018-10-09T05:03:30.103Z,5.50
2018-10-09T05:05:58.645Z,5.61
2018-10-09T05:08:27.221Z,5.70
2018-10-09T05:10:55.768Z,5.82
2018-10-09T05:13:24.333Z,5.91
2018-10-09T05:15:52.989Z,6.07
2018-10-09T05:18:21.582Z,6.15
2018-10-09T05:20:50.374Z,6.20
2018-10-09T05:23:19.096Z,6.17
2018-10-09T05:25:47.822Z,6.10
2018-10-09T05:28:16.389Z,6.11
2018-10-09T05:30:44.948Z,6.16
2018-10-09T05:33:13.605Z,6.18
2018-10-09T05:35:42.239Z,6.21
2018-10-09T05:38:10.967Z,6.23
2018-10-09T05:40:39.538Z,6.20
2018-10-09T05:43:08.121Z,6.28
2018-10-09T05:45:38.597Z,6.39
2018-10-09T05:48:08.303Z,6.41
2018-10-09T05:50:37.321Z,6.44
2018-10-09T05:53:06.051Z,6.49
2018-10-09T05:55:35.158Z,6.57
2018-10-09T05:58:03.857Z,6.64
2018-10-09T06:00:32.685Z,6.77
2018-10-09T06:03:01.499Z,6.91
2018-10-09T06:05:30.690Z,7.25
2018-10-09T06:07:59.273Z,7.65
2018-10-09T06:10:27.850Z,8.08
2018-10-09T06:12:56.442Z,8.41
2018-10-09T06:15:25.183Z,8.72
2018-10-09T06:17:54.055Z,9.09
2018-10-09T06:20:22.715Z,9.39
2018-10-09T06:22:51.559Z,9.57
2018-10-09T06:25:20.176Z,9.81
2018-10-09T06:27:48.748Z,10.01
2018-10-09T06:30:17.314Z,10.24
2018-10-09T06:32:45.898Z,10.47
2018-10-09T06:35:14.607Z,10.82
2018-10-09T06:37:43.341Z,11.15
2018-10-09T06:40:11.918Z,11.52
2018-10-09T06:42:40.529Z,12.25
2018-10-09T06:45:09.266Z,12.98
2018-10-09T06:47:38.626Z,13.65
2018-10-09T06:50:07.517Z,13.93
2018-10-09T06:52:36.243Z,14.01
2018-10-09T06:55:05.045Z,14.16
2018-10-09T06:57:33.731Z,14.32
2018-10-09T07:00:02.350Z,14.25
2018-10-09T07:02:31.170Z,14.18
2018-10-09T07:04:59.723Z,14.64
2018-10-09T07:07:28.271Z,14.77
2018-10-09T07:09:56.930Z,14.65
2018-10-09T07:12:25.714Z,14.65
2018-10-09T07:14:54.423Z,14.73
2018-10-09T07:17:23.064Z,14.79
2018-10-09T07:19:51.703Z,14.91
2018-10-09T07:22:20.258Z,15.21
2018-10-09T07:24:48.808Z,15.65
2018-10-09T07:27:17.519Z,16.14
2018-10-09T07:29:46.204Z,16.56
2018-10-09T07:32:14.845Z,16.56
2018-10-09T07:34:43.396Z,16.35
2018-10-09T07:37:11.936Z,15.84
2018-10-09T07:39:40.518Z,15.38
2018-10-09T07:42:09.120Z,15.14
2018-10-09T07:44:38.274Z,15.16
2018-10-09T07:47:06.927Z,15.38
2018-10-09T07:49:35.569Z,15.92
2018-10-09T07:52:04.163Z,16.79
2018-10-09T07:54:32.803Z,17.59
2018-10-09T07:57:01.390Z,17.55
2018-10-09T07:59:29.976Z,17.77
2018-10-09T08:01:58.689Z,18.20
2018-10-09T08:04:27.421Z,18.59
2018-10-09T08:06:56.009Z,18.41
2018-10-09T08:09:24.574Z,18.36
2018-10-09T08:11:53.143Z,18.34
2018-10-09T08:14:21.713Z,18.38
2018-10-09T08:16:50.366Z,18.45
2018-10-09T08:19:18.985Z,18.29
2018-10-09T08:21:48.122Z,17.67
2018-10-09T08:24:16.885Z,17.12
2018-10-09T08:26:45.445Z,16.62
2018-10-09T08:29:14.054Z,16.42
2018-10-09T08:31:42.644Z,15.93
2018-10-09T08:34:13.346Z,15.71
2018-10-09T08:36:41.898Z,15.66
2018-10-09T08:39:10.510Z,15.80
2018-10-09T08:41:39.157Z,15.97
2018-10-09T08:44:07.709Z,16.13
2018-10-09T08:46:36.254Z,16.24
2018-10-09T08:49:04.809Z,16.45
2018-10-09T08:51:33.386Z,16.47
2018-10-09T08:54:01.990Z,16.59
2018-10-09T08:56:30.630Z,16.67
2018-10-09T08:58:59.345Z,16.75
2018-10-09T09:01:28.099Z,17.03
2018-10-09T09:03:56.695Z,17.27
2018-10-09T09:06:25.346Z,17.41
2018-10-09T09:08:53.906Z,17.55
2018-10-09T09:11:22.444Z,17.67
2018-10-09T09:13:51.081Z,17.66
2018-10-09T09:16:19.984Z,17.54
2018-10-09T09:18:48.594Z,17.52
2018-10-09T09:21:17.256Z,17.63
2018-10-09T09:23:45.936Z,17.54
2018-10-09T09:26:14.520Z,17.35
2018-10-09T09:28:43.223Z,17.25
2018-10-09T09:31:11.831Z,17.07
2018-10-09T09:33:40.406Z,16.99
2018-10-09T09:36:09.059Z,16.92
2018-10-09T09:38:37.613Z,16.99
2018-10-09T09:41:06.674Z,17.15
2018-10-09T09:43:35.274Z,17.30
2018-10-09T09:46:03.863Z,17.13
2018-10-09T09:48:32.850Z,17.14
2018-10-09T09:51:01.514Z,17.07
2018-10-09T09:53:30.221Z,17.04
2018-10-09T09:55:58.860Z,17.05
2018-10-09T09:58:27.506Z,17.08
2018-10-09T10:00:57.498Z,17.18
2018-10-09T10:03:26.889Z,17.29
2018-10-09T10:05:55.613Z,17.46
2018-10-09T10:08:24.239Z,17.61
2018-10-09T10:10:52.814Z,17.66
2018-10-09T10:13:21.429Z,17.80
2018-10-09T10:15:50.065Z,18.02
2018-10-09T10:18:18.774Z,18.28
2018-10-09T10:20:47.388Z,18.44
2018-10-09T10:23:15.950Z,18.45
2018-10-09T10:25:44.495Z,18.51
2018-10-09T10:28:13.246Z,18.62
2018-10-09T10:30:42.097Z,18.62
2018-10-09T10:33:10.801Z,18.67
2018-10-09T10:35:39.419Z,18.79
2018-10-09T10:38:08.491Z,18.83
2018-10-09T10:40:37.162Z,18.84
2018-10-09T10:43:06.006Z,18.89
2018-10-09T10:45:34.595Z,18.92
2018-10-09T10:48:03.579Z,19.00
2018-10-09T10:50:32.231Z,19.05
2018-10-09T10:53:00.791Z,19.07
2018-10-09T10:55:29.377Z,19.10
2018-10-09T10:57:58.058Z,19.19
2018-10-09T11:00:26.626Z,19.32
2018-10-09T11:02:55.192Z,19.35
2018-10-09T11:05:23.876Z,19.41
2018-10-09T11:07:52.449Z,19.39
2018-10-09T11:10:21.250Z,19.39
2018-10-09T11:12:49.776Z,19.50
2018-10-09T11:15:18.349Z,19.56
2018-10-09T11:17:46.910Z,19.61
2018-10-09T11:20:16.069Z,19.70
2018-10-09T11:22:44.785Z,19.73
2018-10-09T11:25:13.481Z,19.77
2018-10-09T11:27:42.079Z,19.80
2018-10-09T11:30:11.000Z,19.84
2018-10-09T11:32:39.641Z,19.92
2018-10-09T11:35:08.419Z,20.06
2018-10-09T11:37:36.978Z,20.03
2018-10-09T11:40:05.575Z,20.10
2018-10-09T11:42:34.249Z,20.18
2018-10-09T11:45:02.899Z,20.28
2018-10-09T11:47:31.490Z,20.37
2018-10-09T11:50:00.034Z,20.39
2018-10-09T11:52:28.639Z,20.43
2018-10-09T11:54:57.186Z,20.39
2018-10-09T11:57:25.847Z,20.35
2018-10-09T11:59:54.593Z,20.27
2018-10-09T12:02:23.257Z,20.27
2018-10-09T12:04:51.797Z,20.32
2018-10-09T12:07:20.734Z,20.37
2018-10-09T12:09:49.270Z,20.40
2018-10-09T12:12:18.266Z,20.41
2018-10-09T12:14:46.811Z,20.42
2018-10-09T12:17:15.394Z,20.37
2018-10-09T12:19:44.060Z,20.40
2018-10-09T12:22:12.661Z,20.36
2018-10-09T12:24:41.243Z,20.38
2018-10-09T12:27:09.842Z,20.37
2018-10-09T12:29:38.598Z,20.46
2018-10-09T12:32:07.158Z,20.56
2018-10-09T12:34:35.806Z,20.58
2018-10-09T12:37:04.438Z,20.68
2018-10-09T12:39:33.011Z,20.70
2018-10-09T12:42:01.596Z,20.70
2018-10-09T12:44:30.197Z,20.74
2018-10-09T12:46:58.927Z,20.79
2018-10-09T12:49:27.515Z,20.77
2018-10-09T12:51:56.188Z,20.80
2018-10-09T12:54:24.929Z,20.79
2018-10-09T12:56:53.505Z,20.79
2018-10-09T12:59:22.077Z,20.81
2018-10-09T13:01:50.695Z,20.94
2018-10-09T13:04:19.237Z,21.00
2018-10-09T13:06:47.933Z,21.00
2018-10-09T13:09:17.029Z,21.01
2018-10-09T13:11:45.801Z,21.02
2018-10-09T13:14:14.426Z,21.08
2018-10-09T13:16:42.979Z,21.01
2018-10-09T13:19:11.546Z,21.03
2018-10-09T13:21:40.980Z,21.00
2018-10-09T13:24:09.579Z,20.93
2018-10-09T13:26:38.367Z,20.82
2018-10-09T13:29:06.946Z,20.75
2018-10-09T13:31:35.515Z,20.65
2018-10-09T13:34:04.112Z,20.60
2018-10-09T13:36:32.830Z,20.51
2018-10-09T13:39:01.417Z,20.61
2018-10-09T13:41:30.028Z,20.56
2018-10-09T13:43:58.627Z,20.44
2018-10-09T13:46:27.557Z,20.37
2018-10-09T13:48:56.122Z,20.35
2018-10-09T13:51:24.762Z,20.31
2018-10-09T13:53:53.486Z,20.33
2018-10-09T13:56:22.043Z,20.35
2018-10-09T13:58:50.591Z,20.32
2018-10-09T14:01:19.317Z,20.31
2018-10-09T14:03:48.096Z,20.32
2018-10-09T14:06:17.001Z,20.32
2018-10-09T14:08:45.702Z,20.31
2018-10-09T14:11:14.244Z,20.50
2018-10-09T14:13:42.810Z,20.52
2018-10-09T14:16:11.434Z,20.52
2018-10-09T14:18:40.159Z,20.57
2018-10-09T14:21:09.007Z,20.60
2018-10-09T14:23:37.670Z,20.47
2018-10-09T14:26:06.234Z,20.46
2018-10-09T14:28:34.836Z,20.38
2018-10-09T14:31:03.572Z,20.27
2018-10-09T14:33:32.130Z,20.27
2018-10-09T14:36:00.750Z,20.16
2018-10-09T14:38:29.814Z,20.12
2018-10-09T14:40:58.574Z,20.24
2018-10-09T14:43:27.157Z,20.20
2018-10-09T14:45:55.880Z,20.15
2018-10-09T14:48:24.453Z,20.11
2018-10-09T14:50:53.062Z,20.04
2018-10-09T14:53:21.655Z,20.01
2018-10-09T14:55:50.330Z,20.03
2018-10-09T14:58:19.129Z,19.89
2018-10-09T15:00:47.683Z,19.70
2018-10-09T15:03:16.278Z,19.55
2018-10-09T15:05:44.979Z,19.56
2018-10-09T15:08:13.553Z,19.60
2018-10-09T15:10:42.835Z,19.59
2018-10-09T15:13:11.498Z,19.53
2018-10-09T15:15:40.198Z,19.44
2018-10-09T15:18:09.018Z,19.35
2018-10-09T15:20:37.641Z,19.18
2018-10-09T15:23:06.994Z,19.01
2018-10-09T15:25:35.585Z,18.80
2018-10-09T15:28:04.638Z,18.62
2018-10-09T15:30:33.285Z,18.40
2018-10-09T15:33:02.365Z,18.21
2018-10-09T15:35:31.049Z,18.11
2018-10-09T15:37:59.769Z,18.05
2018-10-09T15:40:28.343Z,18.22
2018-10-09T15:42:56.961Z,18.22
2018-10-09T15:45:25.510Z,18.08
2018-10-09T15:47:54.150Z,17.98
2018-10-09T15:50:22.859Z,17.95
2018-10-09T15:52:51.765Z,17.81
2018-10-09T15:55:20.702Z,17.58
2018-10-09T15:57:49.293Z,17.31
2018-10-09T16:00:17.884Z,17.10
2018-10-09T16:02:46.437Z,16.93
2018-10-09T16:05:14.995Z,16.98
2018-10-09T16:07:43.686Z,17.08
2018-10-09T16:10:12.337Z,16.98
2018-10-09T16:12:40.987Z,16.90
2018-10-09T16:15:09.742Z,16.75
2018-10-09T16:17:38.436Z,16.54
2018-10-09T16:20:07.265Z,16.29
2018-10-09T16:22:36.333Z,16.04
2018-10-09T16:25:05.046Z,15.91
2018-10-09T16:27:33.770Z,15.79
2018-10-09T16:30:02.482Z,15.64
2018-10-09T16:32:31.483Z,15.50
2018-10-09T16:35:00.207Z,15.41
2018-10-09T16:37:28.809Z,15.32
2018-10-09T16:39:57.482Z,15.17
2018-10-09T16:42:26.195Z,15.13
2018-10-09T16:44:54.801Z,15.19
2018-10-09T16:47:23.469Z,15.08
2018-10-09T16:49:52.181Z,14.97
2018-10-09T16:52:20.747Z,14.92
2018-10-09T16:54:49.533Z,15.07
2018-10-09T16:57:18.154Z,15.22
2018-10-09T16:59:46.716Z,15.25
2018-10-09T17:02:15.290Z,15.17
2018-10-09T17:04:44.766Z,15.07
2018-10-09T17:07:13.419Z,15.03
2018-10-09T17:09:42.403Z,14.91
2018-10-09T17:12:10.975Z,14.80
2018-10-09T17:14:39.535Z,14.85
2018-10-09T17:17:08.114Z,14.92
2018-10-09T17:19:36.715Z,14.86
2018-10-09T17:22:05.616Z,14.79
2018-10-09T17:24:34.311Z,14.59
2018-10-09T17:27:02.886Z,14.48
2018-10-09T17:29:31.429Z,14.40
2018-10-09T17:32:00.002Z,14.26
2018-10-09T17:34:28.650Z,14.14
2018-10-09T17:36:58.950Z,14.18
2018-10-09T17:39:27.638Z,14.32
2018-10-09T17:41:56.431Z,14.40
2018-10-09T17:44:25.192Z,14.42
2018-10-09T17:46:53.965Z,14.28
2018-10-09T17:49:22.823Z,14.15
2018-10-09T17:51:52.758Z,14.16
2018-10-09T17:54:21.466Z,14.32
2018-10-09T17:56:50.870Z,14.27
2018-10-09T17:59:19.607Z,14.29
2018-10-09T18:01:48.508Z,14.31
2018-10-09T18:04:17.166Z,14.24
2018-10-09T18:06:46.496Z,14.24
2018-10-09T18:09:15.129Z,14.12
2018-10-09T18:11:43.795Z,14.10
2018-10-09T18:14:12.812Z,14.09
2018-10-09T18:16:41.402Z,13.98
2018-10-09T18:19:09.986Z,13.94
2018-10-09T18:21:38.597Z,13.86
2018-10-09T18:24:07.866Z,13.82
2018-10-09T18:26:36.546Z,13.76
2018-10-09T18:29:05.225Z,13.71
2018-10-09T18:31:33.850Z,13.67
2018-10-09T18:34:02.566Z,13.67
2018-10-09T18:36:31.744Z,13.61
2018-10-09T18:39:00.314Z,13.57
2018-10-09T18:41:29.316Z,13.59
2018-10-09T18:43:57.991Z,13.67
2018-10-09T18:46:26.746Z,13.82
2018-10-09T18:48:55.373Z,13.88
2018-10-09T18:51:23.979Z,13.81
2018-10-09T18:53:52.712Z,13.68
2018-10-09T18:56:21.269Z,13.59
2018-10-09T18:58:49.853Z,13.53
2018-10-09T19:01:18.720Z,13.54
2018-10-09T19:03:47.337Z,13.43
2018-10-09T19:06:15.907Z,13.41
2018-10-09T19:08:44.609Z,13.34
2018-10-09T19:11:13.174Z,13.20
2018-10-09T19:13:41.785Z,13.14
2018-10-09T19:16:10.350Z,13.06
2018-10-09T19:18:39.002Z,12.96
2018-10-09T19:21:07.554Z,12.90
2018-10-09T19:23:36.470Z,12.99
2018-10-09T19:26:05.138Z,13.13
2018-10-09T19:28:33.673Z,13.28
2018-10-09T19:31:02.260Z,13.20
2018-10-09T19:33:30.850Z,13.16
2018-10-09T19:35:59.619Z,13.05
2018-10-09T19:38:28.324Z,13.02
2018-10-09T19:40:56.889Z,13.04
2018-10-09T19:43:25.419Z,12.96
2018-10-09T19:45:53.992Z,12.88
2018-10-09T19:48:22.558Z,12.75
2018-10-09T19:50:51.310Z,12.64
2018-10-09T19:53:20.131Z,12.76
2018-10-09T19:55:48.727Z,12.74
2018-10-09T19:58:17.648Z,12.78
2018-10-09T20:00:46.277Z,12.69
2018-10-09T20:03:15.665Z,12.69
2018-10-09T20:05:44.221Z,12.72
2018-10-09T20:08:12.854Z,12.65
2018-10-09T20:10:41.413Z,12.59
2018-10-09T20:13:10.061Z,12.57
2018-10-09T20:15:38.899Z,12.50
2018-10-09T20:18:07.600Z,12.48
2018-10-09T20:20:36.198Z,12.48
2018-10-09T20:23:04.786Z,12.51
2018-10-09T20:25:33.359Z,12.45
2018-10-09T20:28:01.948Z,12.39
2018-10-09T20:30:30.828Z,12.43
2018-10-09T20:32:59.527Z,12.40
2018-10-09T20:35:28.099Z,12.33
2018-10-09T20:37:56.762Z,12.24
2018-10-09T20:40:25.333Z,12.22
2018-10-09T20:42:53.887Z,12.12
2018-10-09T20:45:22.486Z,12.02
2018-10-09T20:47:51.081Z,11.93
2018-10-09T20:50:19.740Z,11.83
2018-10-09T20:52:48.286Z,11.72
2018-10-09T20:55:16.863Z,11.64
2018-10-09T20:57:45.447Z,11.59
2018-10-09T21:00:14.385Z,11.68
2018-10-09T21:02:42.972Z,11.88
2018-10-09T21:05:11.667Z,11.99
2018-10-09T21:07:40.322Z,12.00
2018-10-09T21:10:08.941Z,11.92
2018-10-09T21:12:37.571Z,11.89
2018-10-09T21:15:06.209Z,11.84
2018-10-09T21:17:34.880Z,11.72
2018-10-09T21:20:03.565Z,11.60
2018-10-09T21:22:32.305Z,11.58
2018-10-09T21:25:00.953Z,11.64
2018-10-09T21:27:29.538Z,11.70
2018-10-09T21:29:58.588Z,11.76
2018-10-09T21:32:27.563Z,11.79
2018-10-09T21:34:56.126Z,11.85
2018-10-09T21:37:24.732Z,11.71
2018-10-09T21:39:53.445Z,11.56
2018-10-09T21:42:22.062Z,11.45
2018-10-09T21:44:50.661Z,11.33
2018-10-09T21:47:19.230Z,11.23
2018-10-09T21:49:47.861Z,11.22
2018-10-09T21:52:16.587Z,11.38
2018-10-09T21:54:45.189Z,11.48
2018-10-09T21:57:14.629Z,11.45
2018-10-09T21:59:43.214Z,11.45
2018-10-09T22:02:11.894Z,11.35
2018-10-09T22:04:40.453Z,11.26
2018-10-09T22:07:09.085Z,11.26
2018-10-09T22:09:37.669Z,11.19
2018-10-09T22:12:06.254Z,11.10
2018-10-09T22:14:34.945Z,11.09
2018-10-09T22:17:03.552Z,11.11
2018-10-09T22:19:32.286Z,11.05
2018-10-09T22:22:01.053Z,11.06
2018-10-09T22:24:29.877Z,11.02
2018-10-09T22:26:58.673Z,11.02
2018-10-09T22:29:27.425Z,10.94
2018-10-09T22:31:56.014Z,10.91
2018-10-09T22:34:24.820Z,10.94
2018-10-09T22:36:53.415Z,10.91
2018-10-09T22:39:22.135Z,10.94
2018-10-09T22:41:50.678Z,10.90
2018-10-09T22:44:19.901Z,10.78
2018-10-09T22:46:48.573Z,10.58
2018-10-09T22:49:17.403Z,10.57
2018-10-09T22:51:46.045Z,10.56
2018-10-09T22:54:14.856Z,10.63
2018-10-09T22:56:43.502Z,10.55
2018-10-09T22:59:12.046Z,10.43
2018-10-09T23:01:40.588Z,10.27
2018-10-09T23:04:09.515Z,10.21
2018-10-09T23:06:38.138Z,10.31
2018-10-09T23:09:09.167Z,10.49
2018-10-09T23:11:38.119Z,10.61
2018-10-09T23:14:06.858Z,10.73
2018-10-09T23:16:35.822Z,10.78
2018-10-09T23:19:04.516Z,10.79
2018-10-09T23:21:33.219Z,10.79
2018-10-09T23:24:01.777Z,10.69
2018-10-09T23:26:30.364Z,10.70
2018-10-09T23:28:58.945Z,10.60
2018-10-09T23:31:27.477Z,10.55
2018-10-09T23:33:56.206Z,10.38
2018-10-09T23:36:24.825Z,10.30
2018-10-09T23:38:53.400Z,10.27
2018-10-09T23:41:21.999Z,10.16
2018-10-09T23:43:50.566Z,10.04
2018-10-09T23:46:19.108Z,10.11
2018-10-09T23:48:47.890Z,10.35
2018-10-09T23:51:16.694Z,10.58
2018-10-09T23:53:45.797Z,10.63
2018-10-09T23:56:14.353Z,10.57
2018-10-09T23:58:42.909Z,10.58
